sensor_id;sensor_type;location;lat;lon;timestamp;P1;durP1;ratioP1;P2;durP2;ratioP2
37284;SDS011;23172;53.550;9.964;2023-03-01T00:04:37;17.08;;;15.35;;
37284;SDS011;23172;53.550;9.964;2023-03-01T00:09:39;12.43;;;11.27;;
37284;SDS011;23172;53.550;9.964;2023-03-01T00:14:41;19.70;;;17.60;;
37284;SDS011;23172;53.550;9.964;2023-03-01T00:19:44;18.88;;;17.05;;
37284;SDS011;23172;53.550;9.964;2023-03-01T00:24:46;21.88;;;19.65;;
37284;SDS011;23172;53.550;9.964;2023-03-01T00:29:48;23.70;;;21.85;;
37284;SDS011;23172;53.550;9.964;2023-03-01T00:34:51;20.35;;;18.67;;
37284;SDS011;23172;53.550;9.964;2023-03-01T00:39:55;12.40;;;11.27;;
37284;SDS011;23172;53.550;9.964;2023-03-01T00:44:56;10.20;;;8.90;;
37284;SDS011;23172;53.550;9.964;2023-03-01T00:50:00;8.90;;;8.00;;
37284;SDS011;23172;53.550;9.964;2023-03-01T00:55:02;15.20;;;13.73;;
37284;SDS011;23172;53.550;9.964;2023-03-01T01:00:05;11.43;;;10.27;;
37284;SDS011;23172;53.550;9.964;2023-03-01T01:05:11;9.40;;;8.60;;
37284;SDS011;23172;53.550;9.964;2023-03-01T01:10:13;8.02;;;7.32;;
37284;SDS011;23172;53.550;9.964;2023-03-01T01:15:17;10.32;;;8.43;;
37284;SDS011;23172;53.550;9.964;2023-03-01T01:20:20;13.50;;;12.27;;
37284;SDS011;23172;53.550;9.964;2023-03-01T01:25:22;12.05;;;10.80;;
37284;SDS011;23172;53.550;9.964;2023-03-01T01:30:24;9.02;;;8.25;;
37284;SDS011;23172;53.550;9.964;2023-03-01T01:35:28;14.40;;;13.10;;
37284;SDS011;23172;53.550;9.964;2023-03-01T01:40:30;12.48;;;11.38;;
37284;SDS011;23172;53.550;9.964;2023-03-01T01:45:32;16.05;;;14.60;;
37284;SDS011;23172;53.550;9.964;2023-03-01T01:50:37;22.50;;;20.75;;
37284;SDS011;23172;53.550;9.964;2023-03-01T01:55:42;22.20;;;20.45;;
37284;SDS011;23172;53.550;9.964;2023-03-01T02:00:46;25.42;;;23.25;;
37284;SDS011;23172;53.550;9.964;2023-03-01T02:05:52;22.17;;;20.13;;
37284;SDS011;23172;53.550;9.964;2023-03-01T02:10:59;41.78;;;38.25;;
37284;SDS011;23172;53.550;9.964;2023-03-01T02:16:04;32.13;;;29.73;;
37284;SDS011;23172;53.550;9.964;2023-03-01T02:21:13;33.08;;;30.38;;
37284;SDS011;23172;53.550;9.964;2023-03-01T02:26:29;31.73;;;29.35;;
37284;SDS011;23172;53.550;9.964;2023-03-01T02:31:38;34.78;;;31.95;;
37284;SDS011;23172;53.550;9.964;2023-03-01T02:36:44;28.67;;;25.98;;
37284;SDS011;23172;53.550;9.964;2023-03-01T02:41:49;35.97;;;33.05;;
37284;SDS011;23172;53.550;9.964;2023-03-01T02:46:55;46.25;;;42.55;;
37284;SDS011;23172;53.550;9.964;2023-03-01T02:52:02;43.90;;;41.10;;
37284;SDS011;23172;53.550;9.964;2023-03-01T02:57:10;43.25;;;40.13;;
37284;SDS011;23172;53.550;9.964;2023-03-01T03:02:23;32.40;;;29.55;;
37284;SDS011;23172;53.550;9.964;2023-03-01T03:07:38;21.73;;;20.08;;
37284;SDS011;23172;53.550;9.964;2023-03-01T03:12:42;21.50;;;19.52;;
37284;SDS011;23172;53.550;9.964;2023-03-01T03:17:45;24.73;;;22.48;;
37284;SDS011;23172;53.550;9.964;2023-03-01T03:22:48;25.88;;;22.65;;
37284;SDS011;23172;53.550;9.964;2023-03-01T03:27:54;23.65;;;21.42;;
37284;SDS011;23172;53.550;9.964;2023-03-01T03:32:59;20.15;;;18.10;;
37284;SDS011;23172;53.550;9.964;2023-03-01T03:38:01;16.85;;;15.73;;
37284;SDS011;23172;53.550;9.964;2023-03-01T03:43:07;24.75;;;22.25;;
37284;SDS011;23172;53.550;9.964;2023-03-01T03:48:12;17.00;;;15.50;;
37284;SDS011;23172;53.550;9.964;2023-03-01T03:53:14;17.90;;;16.58;;
37284;SDS011;23172;53.550;9.964;2023-03-01T03:58:16;19.35;;;17.20;;
37284;SDS011;23172;53.550;9.964;2023-03-01T04:03:21;13.05;;;12.15;;
37284;SDS011;23172;53.550;9.964;2023-03-01T04:08:24;26.23;;;24.27;;
37284;SDS011;23172;53.550;9.964;2023-03-01T04:13:26;16.73;;;15.25;;
37284;SDS011;23172;53.550;9.964;2023-03-01T04:18:30;14.88;;;13.82;;
37284;SDS011;23172;53.550;9.964;2023-03-01T04:23:31;24.20;;;22.05;;
37284;SDS011;23172;53.550;9.964;2023-03-01T04:28:34;20.55;;;18.70;;
37284;SDS011;23172;53.550;9.964;2023-03-01T04:33:39;16.50;;;15.13;;
37284;SDS011;23172;53.550;9.964;2023-03-01T04:38:42;19.55;;;17.80;;
37284;SDS011;23172;53.550;9.964;2023-03-01T04:43:47;9.35;;;8.60;;
37284;SDS011;23172;53.550;9.964;2023-03-01T04:48:50;13.52;;;12.35;;
37284;SDS011;23172;53.550;9.964;2023-03-01T04:53:52;11.25;;;10.40;;
37284;SDS011;23172;53.550;9.964;2023-03-01T04:58:54;20.58;;;18.83;;
37284;SDS011;23172;53.550;9.964;2023-03-01T05:03:58;14.10;;;12.63;;
37284;SDS011;23172;53.550;9.964;2023-03-01T05:09:03;18.25;;;16.67;;
37284;SDS011;23172;53.550;9.964;2023-03-01T05:14:05;21.45;;;19.75;;
37284;SDS011;23172;53.550;9.964;2023-03-01T05:19:09;17.52;;;16.00;;
37284;SDS011;23172;53.550;9.964;2023-03-01T05:24:15;21.15;;;19.17;;
37284;SDS011;23172;53.550;9.964;2023-03-01T05:29:17;19.13;;;17.20;;
37284;SDS011;23172;53.550;9.964;2023-03-01T05:34:27;23.25;;;21.48;;
37284;SDS011;23172;53.550;9.964;2023-03-01T05:39:29;25.13;;;22.60;;
37284;SDS011;23172;53.550;9.964;2023-03-01T05:44:32;35.72;;;32.83;;
37284;SDS011;23172;53.550;9.964;2023-03-01T05:49:35;29.65;;;27.05;;
37284;SDS011;23172;53.550;9.964;2023-03-01T05:54:37;32.38;;;29.38;;
37284;SDS011;23172;53.550;9.964;2023-03-01T05:59:39;29.83;;;27.15;;
37284;SDS011;23172;53.550;9.964;2023-03-01T06:04:42;42.60;;;38.80;;
37284;SDS011;23172;53.550;9.964;2023-03-01T06:09:44;38.33;;;35.17;;
37284;SDS011;23172;53.550;9.964;2023-03-01T06:14:46;34.60;;;31.90;;
37284;SDS011;23172;53.550;9.964;2023-03-01T06:19:49;36.90;;;34.70;;
37284;SDS011;23172;53.550;9.964;2023-03-01T06:24:51;15.65;;;14.40;;
37284;SDS011;23172;53.550;9.964;2023-03-01T06:29:53;17.27;;;12.00;;
37284;SDS011;23172;53.550;9.964;2023-03-01T06:34:56;18.13;;;16.23;;
37284;SDS011;23172;53.550;9.964;2023-03-01T06:39:59;10.18;;;9.18;;
37284;SDS011;23172;53.550;9.964;2023-03-01T06:45:05;12.85;;;11.02;;
37284;SDS011;23172;53.550;9.964;2023-03-01T06:50:10;13.82;;;12.55;;
37284;SDS011;23172;53.550;9.964;2023-03-01T06:55:12;8.93;;;8.02;;
37284;SDS011;23172;53.550;9.964;2023-03-01T07:00:18;15.85;;;14.20;;
37284;SDS011;23172;53.550;9.964;2023-03-01T07:05:22;13.20;;;12.05;;
37284;SDS011;23172;53.550;9.964;2023-03-01T07:10:23;17.63;;;15.85;;
37284;SDS011;23172;53.550;9.964;2023-03-01T07:15:26;33.05;;;30.38;;
37284;SDS011;23172;53.550;9.964;2023-03-01T07:20:29;39.70;;;36.67;;
37284;SDS011;23172;53.550;9.964;2023-03-01T07:25:31;93.63;;;85.80;;
37284;SDS011;23172;53.550;9.964;2023-03-01T07:30:33;89.38;;;82.97;;
37284;SDS011;23172;53.550;9.964;2023-03-01T07:35:37;52.83;;;48.92;;
37284;SDS011;23172;53.550;9.964;2023-03-01T07:40:38;52.00;;;47.78;;
37284;SDS011;23172;53.550;9.964;2023-03-01T07:45:40;86.78;;;81.20;;
37284;SDS011;23172;53.550;9.964;2023-03-01T07:50:43;63.33;;;58.15;;
37284;SDS011;23172;53.550;9.964;2023-03-01T07:55:45;51.08;;;46.08;;
37284;SDS011;23172;53.550;9.964;2023-03-01T08:00:47;55.03;;;49.28;;
37284;SDS011;23172;53.550;9.964;2023-03-01T08:05:50;36.45;;;33.70;;
37284;SDS011;23172;53.550;9.964;2023-03-01T08:10:52;40.13;;;36.60;;
37284;SDS011;23172;53.550;9.964;2023-03-01T08:16:00;51.15;;;46.90;;
37284;SDS011;23172;53.550;9.964;2023-03-01T08:21:05;70.63;;;64.20;;
37284;SDS011;23172;53.550;9.964;2023-03-01T08:26:09;90.53;;;82.80;;
37284;SDS011;23172;53.550;9.964;2023-03-01T08:31:15;61.70;;;56.88;;
37284;SDS011;23172;53.550;9.964;2023-03-01T08:36:20;92.43;;;85.18;;
37284;SDS011;23172;53.550;9.964;2023-03-01T08:41:22;58.28;;;53.45;;
37284;SDS011;23172;53.550;9.964;2023-03-01T08:46:24;61.92;;;55.88;;
37284;SDS011;23172;53.550;9.964;2023-03-01T08:51:28;50.50;;;46.28;;
37284;SDS011;23172;53.550;9.964;2023-03-01T08:56:32;51.05;;;46.33;;
37284;SDS011;23172;53.550;9.964;2023-03-01T09:01:35;55.45;;;50.92;;
37284;SDS011;23172;53.550;9.964;2023-03-01T09:06:38;51.75;;;46.92;;
37284;SDS011;23172;53.550;9.964;2023-03-01T09:11:40;51.70;;;46.30;;
37284;SDS011;23172;53.550;9.964;2023-03-01T09:16:42;37.03;;;33.47;;
37284;SDS011;23172;53.550;9.964;2023-03-01T09:21:46;43.15;;;26.73;;
37284;SDS011;23172;53.550;9.964;2023-03-01T09:26:53;33.17;;;30.33;;
37284;SDS011;23172;53.550;9.964;2023-03-01T09:31:56;51.35;;;43.00;;
37284;SDS011;23172;53.550;9.964;2023-03-01T09:37:00;54.60;;;49.70;;
37284;SDS011;23172;53.550;9.964;2023-03-01T09:42:02;61.75;;;56.65;;
37284;SDS011;23172;53.550;9.964;2023-03-01T09:47:05;77.55;;;70.70;;
37284;SDS011;23172;53.550;9.964;2023-03-01T09:52:19;131.88;;;120.45;;
37284;SDS011;23172;53.550;9.964;2023-03-01T09:57:27;258.75;;;238.02;;
37284;SDS011;23172;53.550;9.964;2023-03-01T10:02:35;205.02;;;186.18;;
37284;SDS011;23172;53.550;9.964;2023-03-01T10:07:45;188.60;;;172.88;;
37284;SDS011;23172;53.550;9.964;2023-03-01T10:12:55;133.52;;;121.97;;
37284;SDS011;23172;53.550;9.964;2023-03-01T10:17:58;102.97;;;93.47;;
37284;SDS011;23172;53.550;9.964;2023-03-01T10:23:08;106.22;;;97.18;;
37284;SDS011;23172;53.550;9.964;2023-03-01T10:28:14;152.90;;;141.55;;
37284;SDS011;23172;53.550;9.964;2023-03-01T10:33:19;150.98;;;138.07;;
37284;SDS011;23172;53.550;9.964;2023-03-01T10:38:25;104.32;;;94.25;;
37284;SDS011;23172;53.550;9.964;2023-03-01T10:43:30;99.00;;;89.70;;
37284;SDS011;23172;53.550;9.964;2023-03-01T10:48:44;88.85;;;81.00;;
37284;SDS011;23172;53.550;9.964;2023-03-01T10:53:49;94.28;;;85.88;;
37284;SDS011;23172;53.550;9.964;2023-03-01T10:58:58;45.95;;;41.45;;
37284;SDS011;23172;53.550;9.964;2023-03-01T11:04:07;61.55;;;49.45;;
37284;SDS011;23172;53.550;9.964;2023-03-01T11:09:18;27.77;;;25.05;;
37284;SDS011;23172;53.550;9.964;2023-03-01T11:14:22;40.35;;;27.65;;
37284;SDS011;23172;53.550;9.964;2023-03-01T11:19:25;22.73;;;17.70;;
37284;SDS011;23172;53.550;9.964;2023-03-01T11:24:30;27.40;;;20.40;;
37284;SDS011;23172;53.550;9.964;2023-03-01T11:29:38;13.88;;;11.18;;
37284;SDS011;23172;53.550;9.964;2023-03-01T11:34:46;23.88;;;17.50;;
37284;SDS011;23172;53.550;9.964;2023-03-01T11:39:53;19.50;;;16.02;;
37284;SDS011;23172;53.550;9.964;2023-03-01T11:45:02;17.60;;;14.55;;
37284;SDS011;23172;53.550;9.964;2023-03-01T11:50:14;17.27;;;14.70;;
37284;SDS011;23172;53.550;9.964;2023-03-01T11:55:32;21.30;;;13.63;;
37284;SDS011;23172;53.550;9.964;2023-03-01T12:00:52;8.65;;;7.85;;
37284;SDS011;23172;53.550;9.964;2023-03-01T12:11:39;10.07;;;7.78;;
37284;SDS011;23172;53.550;9.964;2023-03-01T12:16:56;12.65;;;11.07;;
37284;SDS011;23172;53.550;9.964;2023-03-01T12:22:14;10.50;;;7.30;;
37284;SDS011;23172;53.550;9.964;2023-03-01T12:27:35;9.70;;;8.57;;
37284;SDS011;23172;53.550;9.964;2023-03-01T12:32:51;14.57;;;8.38;;
37284;SDS011;23172;53.550;9.964;2023-03-01T12:38:10;12.13;;;10.93;;
37284;SDS011;23172;53.550;9.964;2023-03-01T12:43:28;14.50;;;11.20;;
37284;SDS011;23172;53.550;9.964;2023-03-01T12:48:46;8.25;;;7.43;;
37284;SDS011;23172;53.550;9.964;2023-03-01T12:53:55;13.90;;;9.02;;
37284;SDS011;23172;53.550;9.964;2023-03-01T12:59:04;10.40;;;8.77;;
37284;SDS011;23172;53.550;9.964;2023-03-01T13:04:18;10.93;;;9.23;;
37284;SDS011;23172;53.550;9.964;2023-03-01T13:09:38;7.25;;;5.97;;
37284;SDS011;23172;53.550;9.964;2023-03-01T13:14:46;12.95;;;10.75;;
37284;SDS011;23172;53.550;9.964;2023-03-01T13:19:55;10.38;;;9.38;;
37284;SDS011;23172;53.550;9.964;2023-03-01T13:25:03;12.63;;;9.90;;
37284;SDS011;23172;53.550;9.964;2023-03-01T13:35:44;13.55;;;9.75;;
37284;SDS011;23172;53.550;9.964;2023-03-01T13:40:59;10.05;;;9.07;;
37284;SDS011;23172;53.550;9.964;2023-03-01T13:46:07;16.25;;;12.80;;
37284;SDS011;23172;53.550;9.964;2023-03-01T13:51:12;12.52;;;10.15;;
37284;SDS011;23172;53.550;9.964;2023-03-01T13:56:15;17.35;;;13.18;;
37284;SDS011;23172;53.550;9.964;2023-03-01T14:01:22;9.63;;;8.48;;
37284;SDS011;23172;53.550;9.964;2023-03-01T14:06:26;12.30;;;10.85;;
37284;SDS011;23172;53.550;9.964;2023-03-01T14:22:48;11.30;;;9.98;;
37284;SDS011;23172;53.550;9.964;2023-03-01T14:27:55;13.85;;;9.05;;
37284;SDS011;23172;53.550;9.964;2023-03-01T14:33:03;9.52;;;7.80;;
37284;SDS011;23172;53.550;9.964;2023-03-01T14:38:19;10.73;;;9.30;;
37284;SDS011;23172;53.550;9.964;2023-03-01T14:43:22;7.20;;;5.18;;
37284;SDS011;23172;53.550;9.964;2023-03-01T14:48:26;10.80;;;8.90;;
37284;SDS011;23172;53.550;9.964;2023-03-01T14:53:30;17.27;;;12.05;;
37284;SDS011;23172;53.550;9.964;2023-03-01T14:58:32;9.77;;;8.48;;
37284;SDS011;23172;53.550;9.964;2023-03-01T15:03:35;8.60;;;7.63;;
37284;SDS011;23172;53.550;9.964;2023-03-01T15:08:41;7.30;;;6.60;;
37284;SDS011;23172;53.550;9.964;2023-03-01T15:13:45;10.43;;;7.28;;
37284;SDS011;23172;53.550;9.964;2023-03-01T15:18:48;9.65;;;8.35;;
37284;SDS011;23172;53.550;9.964;2023-03-01T15:23:54;8.25;;;7.32;;
37284;SDS011;23172;53.550;9.964;2023-03-01T15:28:58;10.27;;;7.60;;
37284;SDS011;23172;53.550;9.964;2023-03-01T15:34:08;7.95;;;6.25;;
37284;SDS011;23172;53.550;9.964;2023-03-01T15:45:06;8.30;;;6.95;;
37284;SDS011;23172;53.550;9.964;2023-03-01T15:50:14;6.97;;;6.30;;
37284;SDS011;23172;53.550;9.964;2023-03-01T15:55:22;9.88;;;7.78;;
37284;SDS011;23172;53.550;9.964;2023-03-01T16:00:27;10.15;;;8.85;;
37284;SDS011;23172;53.550;9.964;2023-03-01T16:05:31;17.38;;;11.23;;
37284;SDS011;23172;53.550;9.964;2023-03-01T16:10:36;10.75;;;8.77;;
37284;SDS011;23172;53.550;9.964;2023-03-01T16:15:38;15.77;;;11.57;;
37284;SDS011;23172;53.550;9.964;2023-03-01T16:20:40;9.73;;;7.28;;
37284;SDS011;23172;53.550;9.964;2023-03-01T16:25:44;14.20;;;10.15;;
37284;SDS011;23172;53.550;9.964;2023-03-01T16:30:46;13.13;;;10.52;;
37284;SDS011;23172;53.550;9.964;2023-03-01T16:35:49;13.48;;;10.85;;
37284;SDS011;23172;53.550;9.964;2023-03-01T16:40:52;14.23;;;10.98;;
37284;SDS011;23172;53.550;9.964;2023-03-01T16:45:54;11.07;;;8.27;;
37284;SDS011;23172;53.550;9.964;2023-03-01T16:50:57;12.90;;;9.80;;
37284;SDS011;23172;53.550;9.964;2023-03-01T16:56:02;13.85;;;8.70;;
37284;SDS011;23172;53.550;9.964;2023-03-01T17:01:05;12.02;;;9.27;;
37284;SDS011;23172;53.550;9.964;2023-03-01T17:06:09;16.25;;;12.50;;
37284;SDS011;23172;53.550;9.964;2023-03-01T17:11:14;9.52;;;7.88;;
37284;SDS011;23172;53.550;9.964;2023-03-01T17:16:18;14.35;;;10.55;;
37284;SDS011;23172;53.550;9.964;2023-03-01T17:21:22;8.43;;;6.85;;
37284;SDS011;23172;53.550;9.964;2023-03-01T17:26:25;9.82;;;8.25;;
37284;SDS011;23172;53.550;9.964;2023-03-01T17:31:28;7.75;;;6.75;;
37284;SDS011;23172;53.550;9.964;2023-03-01T17:36:30;9.18;;;6.00;;
37284;SDS011;23172;53.550;9.964;2023-03-01T17:41:42;9.93;;;8.45;;
37284;SDS011;23172;53.550;9.964;2023-03-01T17:46:44;7.97;;;6.70;;
37284;SDS011;23172;53.550;9.964;2023-03-01T17:51:46;8.30;;;6.40;;
37284;SDS011;23172;53.550;9.964;2023-03-01T17:56:49;8.70;;;6.63;;
37284;SDS011;23172;53.550;9.964;2023-03-01T18:01:51;7.13;;;6.22;;
37284;SDS011;23172;53.550;9.964;2023-03-01T18:06:53;9.30;;;6.75;;
37284;SDS011;23172;53.550;9.964;2023-03-01T18:11:56;7.15;;;6.18;;
37284;SDS011;23172;53.550;9.964;2023-03-01T18:16:58;8.38;;;6.13;;
37284;SDS011;23172;53.550;9.964;2023-03-01T18:22:01;9.23;;;7.35;;
37284;SDS011;23172;53.550;9.964;2023-03-01T18:27:04;7.38;;;6.20;;
37284;SDS011;23172;53.550;9.964;2023-03-01T18:32:06;7.80;;;6.70;;
37284;SDS011;23172;53.550;9.964;2023-03-01T18:37:08;6.05;;;5.20;;
37284;SDS011;23172;53.550;9.964;2023-03-01T18:42:11;6.63;;;5.55;;
37284;SDS011;23172;53.550;9.964;2023-03-01T18:47:15;10.52;;;7.78;;
37284;SDS011;23172;53.550;9.964;2023-03-01T18:52:17;10.50;;;8.68;;
37284;SDS011;23172;53.550;9.964;2023-03-01T18:57:20;12.98;;;9.80;;
37284;SDS011;23172;53.550;9.964;2023-03-01T19:02:22;10.65;;;9.10;;
37284;SDS011;23172;53.550;9.964;2023-03-01T19:07:24;9.25;;;8.32;;
37284;SDS011;23172;53.550;9.964;2023-03-01T19:12:27;12.65;;;10.32;;
37284;SDS011;23172;53.550;9.964;2023-03-01T19:17:30;14.52;;;12.27;;
37284;SDS011;23172;53.550;9.964;2023-03-01T19:22:32;12.38;;;10.52;;
37284;SDS011;23172;53.550;9.964;2023-03-01T19:27:36;15.45;;;12.90;;
37284;SDS011;23172;53.550;9.964;2023-03-01T19:32:37;19.25;;;14.05;;
37284;SDS011;23172;53.550;9.964;2023-03-01T19:37:40;18.25;;;14.65;;
37284;SDS011;23172;53.550;9.964;2023-03-01T19:42:44;21.83;;;16.63;;
37284;SDS011;23172;53.550;9.964;2023-03-01T19:47:46;18.15;;;14.23;;
37284;SDS011;23172;53.550;9.964;2023-03-01T19:52:49;15.45;;;11.80;;
37284;SDS011;23172;53.550;9.964;2023-03-01T19:57:53;16.60;;;13.02;;
37284;SDS011;23172;53.550;9.964;2023-03-01T20:02:55;19.42;;;14.57;;
37284;SDS011;23172;53.550;9.964;2023-03-01T20:07:57;19.08;;;14.35;;
37284;SDS011;23172;53.550;9.964;2023-03-01T20:13:01;20.85;;;16.10;;
37284;SDS011;23172;53.550;9.964;2023-03-01T20:18:03;26.08;;;18.33;;
37284;SDS011;23172;53.550;9.964;2023-03-01T20:23:05;25.40;;;17.23;;
37284;SDS011;23172;53.550;9.964;2023-03-01T20:28:09;22.15;;;15.73;;
37284;SDS011;23172;53.550;9.964;2023-03-01T20:33:11;23.63;;;16.95;;
37284;SDS011;23172;53.550;9.964;2023-03-01T20:38:13;23.58;;;18.33;;
37284;SDS011;23172;53.550;9.964;2023-03-01T20:43:16;23.17;;;16.70;;
37284;SDS011;23172;53.550;9.964;2023-03-01T20:48:18;22.35;;;17.42;;
37284;SDS011;23172;53.550;9.964;2023-03-01T20:53:20;17.20;;;13.95;;
37284;SDS011;23172;53.550;9.964;2023-03-01T20:58:23;17.52;;;13.40;;
37284;SDS011;23172;53.550;9.964;2023-03-01T21:03:26;16.33;;;12.73;;
37284;SDS011;23172;53.550;9.964;2023-03-01T21:08:28;15.05;;;11.43;;
37284;SDS011;23172;53.550;9.964;2023-03-01T21:13:32;14.07;;;11.80;;
37284;SDS011;23172;53.550;9.964;2023-03-01T21:18:34;20.13;;;16.10;;
37284;SDS011;23172;53.550;9.964;2023-03-01T21:23:38;18.00;;;13.75;;
37284;SDS011;23172;53.550;9.964;2023-03-01T21:28:41;19.20;;;14.40;;
37284;SDS011;23172;53.550;9.964;2023-03-01T21:33:45;24.27;;;16.75;;
37284;SDS011;23172;53.550;9.964;2023-03-01T21:38:47;23.02;;;17.23;;
37284;SDS011;23172;53.550;9.964;2023-03-01T21:43:52;20.35;;;15.43;;
37284;SDS011;23172;53.550;9.964;2023-03-01T21:48:56;14.68;;;12.20;;
37284;SDS011;23172;53.550;9.964;2023-03-01T21:53:58;17.83;;;13.93;;
37284;SDS011;23172;53.550;9.964;2023-03-01T21:59:02;15.27;;;12.20;;
37284;SDS011;23172;53.550;9.964;2023-03-01T22:04:04;16.30;;;13.00;;
37284;SDS011;23172;53.550;9.964;2023-03-01T22:09:07;16.40;;;13.18;;
37284;SDS011;23172;53.550;9.964;2023-03-01T22:14:13;23.75;;;17.33;;
37284;SDS011;23172;53.550;9.964;2023-03-01T22:19:15;22.45;;;17.08;;
37284;SDS011;23172;53.550;9.964;2023-03-01T22:24:18;23.13;;;17.02;;
37284;SDS011;23172;53.550;9.964;2023-03-01T22:29:24;19.88;;;14.38;;
37284;SDS011;23172;53.550;9.964;2023-03-01T22:34:27;21.85;;;16.02;;
37284;SDS011;23172;53.550;9.964;2023-03-01T22:39:30;21.65;;;16.95;;
37284;SDS011;23172;53.550;9.964;2023-03-01T22:44:33;15.80;;;11.27;;
37284;SDS011;23172;53.550;9.964;2023-03-01T22:49:35;12.90;;;10.20;;
37284;SDS011;23172;53.550;9.964;2023-03-01T22:54:37;13.38;;;11.07;;
37284;SDS011;23172;53.550;9.964;2023-03-01T22:59:40;15.70;;;12.10;;
37284;SDS011;23172;53.550;9.964;2023-03-01T23:04:42;12.05;;;9.80;;
37284;SDS011;23172;53.550;9.964;2023-03-01T23:09:47;17.33;;;12.95;;
37284;SDS011;23172;53.550;9.964;2023-03-01T23:14:50;15.63;;;11.70;;
37284;SDS011;23172;53.550;9.964;2023-03-01T23:19:53;14.55;;;11.10;;
37284;SDS011;23172;53.550;9.964;2023-03-01T23:24:55;16.80;;;12.13;;
37284;SDS011;23172;53.550;9.964;2023-03-01T23:29:58;16.98;;;12.85;;
37284;SDS011;23172;53.550;9.964;2023-03-01T23:35:00;22.30;;;15.85;;
37284;SDS011;23172;53.550;9.964;2023-03-01T23:40:02;20.55;;;13.98;;
37284;SDS011;23172;53.550;9.964;2023-03-01T23:45:07;15.75;;;11.70;;
37284;SDS011;23172;53.550;9.964;2023-03-01T23:50:10;14.13;;;11.07;;
37284;SDS011;23172;53.550;9.964;2023-03-01T23:55:12;17.65;;;13.20;;
